sensor_id;sensor_type;location;lat;lon;timestamp;P1;durP1;ratioP1;P2;durP2;ratioP2
56343;SDS011;42245;42.058;24.700;2023-12-29T00:00:16;6.53;;;3.43;;
56343;SDS011;42245;42.058;24.700;2023-12-29T00:02:41;7.47;;;3.47;;
56343;SDS011;42245;42.058;24.700;2023-12-29T00:05:07;7.13;;;3.13;;
56343;SDS011;42245;42.058;24.700;2023-12-29T00:07:32;8.90;;;3.00;;
56343;SDS011;42245;42.058;24.700;2023-12-29T00:09:58;7.70;;;2.87;;
56343;SDS011;42245;42.058;24.700;2023-12-29T00:12:23;5.57;;;3.10;;
56343;SDS011;42245;42.058;24.700;2023-12-29T00:14:49;5.90;;;3.00;;
56343;SDS011;42245;42.058;24.700;2023-12-29T00:17:14;6.53;;;2.73;;
56343;SDS011;42245;42.058;24.700;2023-12-29T00:19:40;6.03;;;3.03;;
56343;SDS011;42245;42.058;24.700;2023-12-29T00:22:05;5.53;;;2.87;;
56343;SDS011;42245;42.058;24.700;2023-12-29T00:24:31;4.07;;;2.80;;
56343;SDS011;42245;42.058;24.700;2023-12-29T00:26:57;6.93;;;2.90;;
56343;SDS011;42245;42.058;24.700;2023-12-29T00:29:23;4.50;;;2.70;;
56343;SDS011;42245;42.058;24.700;2023-12-29T00:31:48;6.63;;;2.70;;
56343;SDS011;42245;42.058;24.700;2023-12-29T00:34:14;4.83;;;2.60;;
56343;SDS011;42245;42.058;24.700;2023-12-29T00:36:39;5.23;;;3.10;;
56343;SDS011;42245;42.058;24.700;2023-12-29T00:39:05;8.03;;;3.20;;
56343;SDS011;42245;42.058;24.700;2023-12-29T00:41:31;4.57;;;3.03;;
56343;SDS011;42245;42.058;24.700;2023-12-29T00:43:57;6.40;;;3.10;;
56343;SDS011;42245;42.058;24.700;2023-12-29T00:46:22;4.60;;;2.63;;
56343;SDS011;42245;42.058;24.700;2023-12-29T00:48:48;5.03;;;2.93;;
56343;SDS011;42245;42.058;24.700;2023-12-29T00:51:13;3.97;;;3.00;;
56343;SDS011;42245;42.058;24.700;2023-12-29T00:53:39;4.87;;;2.57;;
56343;SDS011;42245;42.058;24.700;2023-12-29T00:56:13;5.53;;;2.87;;
56343;SDS011;42245;42.058;24.700;2023-12-29T00:58:39;4.47;;;2.43;;
56343;SDS011;42245;42.058;24.700;2023-12-29T01:01:08;5.17;;;2.67;;
56343;SDS011;42245;42.058;24.700;2023-12-29T01:03:34;6.60;;;3.30;;
56343;SDS011;42245;42.058;24.700;2023-12-29T01:06:00;5.83;;;2.73;;
56343;SDS011;42245;42.058;24.700;2023-12-29T01:08:25;4.50;;;2.90;;
56343;SDS011;42245;42.058;24.700;2023-12-29T01:10:51;6.00;;;2.80;;
56343;SDS011;42245;42.058;24.700;2023-12-29T01:13:17;4.60;;;2.13;;
56343;SDS011;42245;42.058;24.700;2023-12-29T01:15:42;6.63;;;2.03;;
56343;SDS011;42245;42.058;24.700;2023-12-29T01:18:10;4.37;;;2.73;;
56343;SDS011;42245;42.058;24.700;2023-12-29T01:20:36;4.77;;;2.50;;
56343;SDS011;42245;42.058;24.700;2023-12-29T01:23:01;5.77;;;2.70;;
56343;SDS011;42245;42.058;24.700;2023-12-29T01:25:27;3.97;;;2.40;;
56343;SDS011;42245;42.058;24.700;2023-12-29T01:27:52;4.47;;;2.50;;
56343;SDS011;42245;42.058;24.700;2023-12-29T01:30:18;5.80;;;2.43;;
56343;SDS011;42245;42.058;24.700;2023-12-29T01:32:43;4.40;;;2.10;;
56343;SDS011;42245;42.058;24.700;2023-12-29T01:35:09;4.07;;;2.50;;
56343;SDS011;42245;42.058;24.700;2023-12-29T01:37:34;4.90;;;2.73;;
56343;SDS011;42245;42.058;24.700;2023-12-29T01:40:00;3.20;;;2.10;;
56343;SDS011;42245;42.058;24.700;2023-12-29T01:42:25;4.70;;;2.23;;
56343;SDS011;42245;42.058;24.700;2023-12-29T01:44:51;3.90;;;2.30;;
56343;SDS011;42245;42.058;24.700;2023-12-29T01:47:19;3.43;;;2.30;;
56343;SDS011;42245;42.058;24.700;2023-12-29T01:49:45;3.03;;;2.20;;
56343;SDS011;42245;42.058;24.700;2023-12-29T01:52:10;7.10;;;2.23;;
56343;SDS011;42245;42.058;24.700;2023-12-29T01:54:36;5.60;;;2.43;;
56343;SDS011;42245;42.058;24.700;2023-12-29T01:57:05;3.73;;;2.60;;
56343;SDS011;42245;42.058;24.700;2023-12-29T01:59:33;3.90;;;2.20;;
56343;SDS011;42245;42.058;24.700;2023-12-29T02:02:00;6.83;;;2.70;;
56343;SDS011;42245;42.058;24.700;2023-12-29T02:04:27;5.23;;;2.87;;
56343;SDS011;42245;42.058;24.700;2023-12-29T02:06:53;4.63;;;2.67;;
56343;SDS011;42245;42.058;24.700;2023-12-29T02:09:19;7.00;;;2.67;;
56343;SDS011;42245;42.058;24.700;2023-12-29T02:11:45;5.23;;;2.60;;
56343;SDS011;42245;42.058;24.700;2023-12-29T02:14:10;3.97;;;2.60;;
56343;SDS011;42245;42.058;24.700;2023-12-29T02:19:44;3.57;;;2.57;;
56343;SDS011;42245;42.058;24.700;2023-12-29T02:22:12;4.63;;;2.50;;
56343;SDS011;42245;42.058;24.700;2023-12-29T02:24:38;4.37;;;2.90;;
56343;SDS011;42245;42.058;24.700;2023-12-29T02:29:32;6.00;;;2.70;;
56343;SDS011;42245;42.058;24.700;2023-12-29T02:31:59;4.83;;;2.30;;
56343;SDS011;42245;42.058;24.700;2023-12-29T02:34:25;4.77;;;2.80;;
56343;SDS011;42245;42.058;24.700;2023-12-29T02:36:53;5.07;;;2.70;;
56343;SDS011;42245;42.058;24.700;2023-12-29T02:39:18;5.30;;;2.77;;
56343;SDS011;42245;42.058;24.700;2023-12-29T02:41:44;4.03;;;2.43;;
56343;SDS011;42245;42.058;24.700;2023-12-29T02:44:10;4.33;;;2.50;;
56343;SDS011;42245;42.058;24.700;2023-12-29T02:46:35;5.37;;;2.73;;
56343;SDS011;42245;42.058;24.700;2023-12-29T02:49:01;3.87;;;2.20;;
56343;SDS011;42245;42.058;24.700;2023-12-29T02:51:26;4.30;;;2.37;;
56343;SDS011;42245;42.058;24.700;2023-12-29T02:53:51;4.43;;;2.67;;
56343;SDS011;42245;42.058;24.700;2023-12-29T02:56:17;5.23;;;2.37;;
56343;SDS011;42245;42.058;24.700;2023-12-29T02:58:42;3.87;;;2.40;;
56343;SDS011;42245;42.058;24.700;2023-12-29T03:01:10;5.67;;;2.30;;
56343;SDS011;42245;42.058;24.700;2023-12-29T03:03:36;6.40;;;2.80;;
56343;SDS011;42245;42.058;24.700;2023-12-29T03:06:05;5.33;;;2.90;;
56343;SDS011;42245;42.058;24.700;2023-12-29T03:08:31;4.83;;;2.77;;
56343;SDS011;42245;42.058;24.700;2023-12-29T03:10:57;5.37;;;3.20;;
56343;SDS011;42245;42.058;24.700;2023-12-29T03:13:23;4.83;;;2.83;;
56343;SDS011;42245;42.058;24.700;2023-12-29T03:15:49;3.67;;;2.50;;
56343;SDS011;42245;42.058;24.700;2023-12-29T03:18:14;3.83;;;2.13;;
56343;SDS011;42245;42.058;24.700;2023-12-29T03:20:39;5.40;;;2.20;;
56343;SDS011;42245;42.058;24.700;2023-12-29T03:23:05;5.43;;;2.40;;
56343;SDS011;42245;42.058;24.700;2023-12-29T03:25:30;5.60;;;3.13;;
56343;SDS011;42245;42.058;24.700;2023-12-29T03:27:56;4.13;;;2.63;;
56343;SDS011;42245;42.058;24.700;2023-12-29T03:30:21;4.77;;;2.03;;
56343;SDS011;42245;42.058;24.700;2023-12-29T03:32:47;4.33;;;2.40;;
56343;SDS011;42245;42.058;24.700;2023-12-29T03:35:12;2.90;;;2.07;;
56343;SDS011;42245;42.058;24.700;2023-12-29T03:37:38;2.67;;;1.80;;
56343;SDS011;42245;42.058;24.700;2023-12-29T03:40:03;2.60;;;1.90;;
56343;SDS011;42245;42.058;24.700;2023-12-29T03:42:29;2.30;;;1.80;;
56343;SDS011;42245;42.058;24.700;2023-12-29T03:44:54;2.97;;;1.60;;
56343;SDS011;42245;42.058;24.700;2023-12-29T03:47:20;3.63;;;1.70;;
56343;SDS011;42245;42.058;24.700;2023-12-29T03:49:45;3.43;;;1.90;;
56343;SDS011;42245;42.058;24.700;2023-12-29T03:52:11;2.13;;;1.63;;
56343;SDS011;42245;42.058;24.700;2023-12-29T03:54:36;1.83;;;1.40;;
56343;SDS011;42245;42.058;24.700;2023-12-29T03:57:02;1.47;;;1.33;;
56343;SDS011;42245;42.058;24.700;2023-12-29T03:59:27;2.07;;;1.33;;
56343;SDS011;42245;42.058;24.700;2023-12-29T04:01:53;3.57;;;1.57;;
56343;SDS011;42245;42.058;24.700;2023-12-29T04:04:18;2.20;;;1.53;;
56343;SDS011;42245;42.058;24.700;2023-12-29T04:06:44;4.17;;;2.33;;
56343;SDS011;42245;42.058;24.700;2023-12-29T04:09:09;8.00;;;2.23;;
56343;SDS011;42245;42.058;24.700;2023-12-29T04:11:34;4.00;;;2.40;;
56343;SDS011;42245;42.058;24.700;2023-12-29T04:14:00;4.53;;;2.33;;
56343;SDS011;42245;42.058;24.700;2023-12-29T04:16:26;4.83;;;2.20;;
56343;SDS011;42245;42.058;24.700;2023-12-29T04:18:51;2.57;;;1.90;;
56343;SDS011;42245;42.058;24.700;2023-12-29T04:21:16;2.33;;;1.67;;
56343;SDS011;42245;42.058;24.700;2023-12-29T04:23:42;5.93;;;3.37;;
56343;SDS011;42245;42.058;24.700;2023-12-29T04:26:07;7.53;;;3.90;;
56343;SDS011;42245;42.058;24.700;2023-12-29T04:28:33;9.23;;;3.90;;
56343;SDS011;42245;42.058;24.700;2023-12-29T04:30:59;11.33;;;4.30;;
56343;SDS011;42245;42.058;24.700;2023-12-29T04:33:24;11.17;;;5.47;;
56343;SDS011;42245;42.058;24.700;2023-12-29T04:35:50;19.97;;;8.10;;
56343;SDS011;42245;42.058;24.700;2023-12-29T04:38:15;7.53;;;4.00;;
56343;SDS011;42245;42.058;24.700;2023-12-29T04:40:43;6.73;;;3.67;;
56343;SDS011;42245;42.058;24.700;2023-12-29T04:43:08;8.90;;;3.90;;
56343;SDS011;42245;42.058;24.700;2023-12-29T04:45:34;4.97;;;2.60;;
56343;SDS011;42245;42.058;24.700;2023-12-29T04:47:59;6.90;;;2.80;;
56343;SDS011;42245;42.058;24.700;2023-12-29T04:50:25;8.27;;;3.60;;
56343;SDS011;42245;42.058;24.700;2023-12-29T04:52:50;2.70;;;2.10;;
56343;SDS011;42245;42.058;24.700;2023-12-29T04:55:16;2.03;;;1.33;;
56343;SDS011;42245;42.058;24.700;2023-12-29T04:57:41;2.43;;;1.50;;
56343;SDS011;42245;42.058;24.700;2023-12-29T05:00:07;2.07;;;1.43;;
56343;SDS011;42245;42.058;24.700;2023-12-29T05:02:33;1.87;;;1.27;;
56343;SDS011;42245;42.058;24.700;2023-12-29T05:04:58;3.70;;;1.27;;
56343;SDS011;42245;42.058;24.700;2023-12-29T05:07:24;1.80;;;1.27;;
56343;SDS011;42245;42.058;24.700;2023-12-29T05:09:49;1.27;;;1.10;;
56343;SDS011;42245;42.058;24.700;2023-12-29T05:12:15;2.37;;;1.20;;
56343;SDS011;42245;42.058;24.700;2023-12-29T05:14:41;1.53;;;1.17;;
56343;SDS011;42245;42.058;24.700;2023-12-29T05:17:06;2.17;;;1.40;;
56343;SDS011;42245;42.058;24.700;2023-12-29T05:19:33;4.03;;;1.80;;
56343;SDS011;42245;42.058;24.700;2023-12-29T05:21:59;3.43;;;1.73;;
56343;SDS011;42245;42.058;24.700;2023-12-29T05:24:24;2.70;;;1.40;;
56343;SDS011;42245;42.058;24.700;2023-12-29T05:26:49;2.07;;;1.40;;
56343;SDS011;42245;42.058;24.700;2023-12-29T05:29:15;2.80;;;1.70;;
56343;SDS011;42245;42.058;24.700;2023-12-29T05:31:40;12.37;;;7.17;;
56343;SDS011;42245;42.058;24.700;2023-12-29T05:34:06;6.00;;;3.80;;
56343;SDS011;42245;42.058;24.700;2023-12-29T05:36:34;6.13;;;4.20;;
56343;SDS011;42245;42.058;24.700;2023-12-29T05:39:00;7.07;;;4.60;;
56343;SDS011;42245;42.058;24.700;2023-12-29T05:41:26;7.70;;;4.47;;
56343;SDS011;42245;42.058;24.700;2023-12-29T05:43:51;7.63;;;4.73;;
56343;SDS011;42245;42.058;24.700;2023-12-29T05:46:16;4.97;;;2.53;;
56343;SDS011;42245;42.058;24.700;2023-12-29T05:48:42;5.60;;;2.60;;
56343;SDS011;42245;42.058;24.700;2023-12-29T05:51:12;5.00;;;3.63;;
56343;SDS011;42245;42.058;24.700;2023-12-29T05:53:41;9.70;;;2.20;;
56343;SDS011;42245;42.058;24.700;2023-12-29T05:56:07;10.53;;;6.23;;
56343;SDS011;42245;42.058;24.700;2023-12-29T05:58:33;6.47;;;4.73;;
56343;SDS011;42245;42.058;24.700;2023-12-29T06:00:58;7.70;;;5.10;;
56343;SDS011;42245;42.058;24.700;2023-12-29T06:03:25;7.87;;;4.80;;
56343;SDS011;42245;42.058;24.700;2023-12-29T06:05:51;8.40;;;5.10;;
56343;SDS011;42245;42.058;24.700;2023-12-29T06:08:17;7.70;;;4.63;;
56343;SDS011;42245;42.058;24.700;2023-12-29T06:10:42;7.70;;;4.13;;
56343;SDS011;42245;42.058;24.700;2023-12-29T06:13:08;10.23;;;4.70;;
56343;SDS011;42245;42.058;24.700;2023-12-29T06:15:33;58.30;;;20.60;;
56343;SDS011;42245;42.058;24.700;2023-12-29T06:17:59;26.80;;;10.47;;
56343;SDS011;42245;42.058;24.700;2023-12-29T06:20:25;11.87;;;6.10;;
56343;SDS011;42245;42.058;24.700;2023-12-29T06:22:50;11.93;;;4.03;;
56343;SDS011;42245;42.058;24.700;2023-12-29T06:25:16;5.67;;;3.10;;
56343;SDS011;42245;42.058;24.700;2023-12-29T06:27:42;13.27;;;3.67;;
56343;SDS011;42245;42.058;24.700;2023-12-29T06:30:08;2.73;;;1.67;;
56343;SDS011;42245;42.058;24.700;2023-12-29T06:32:34;6.40;;;2.73;;
56343;SDS011;42245;42.058;24.700;2023-12-29T06:35:00;2.70;;;1.83;;
56343;SDS011;42245;42.058;24.700;2023-12-29T06:37:26;10.20;;;1.63;;
56343;SDS011;42245;42.058;24.700;2023-12-29T06:39:51;1.43;;;1.30;;
56343;SDS011;42245;42.058;24.700;2023-12-29T06:42:17;3.43;;;1.60;;
56343;SDS011;42245;42.058;24.700;2023-12-29T06:44:42;3.33;;;1.70;;
56343;SDS011;42245;42.058;24.700;2023-12-29T06:47:08;3.80;;;2.20;;
56343;SDS011;42245;42.058;24.700;2023-12-29T06:49:34;3.60;;;1.70;;
56343;SDS011;42245;42.058;24.700;2023-12-29T06:52:00;10.23;;;2.50;;
56343;SDS011;42245;42.058;24.700;2023-12-29T06:54:26;8.03;;;2.93;;
56343;SDS011;42245;42.058;24.700;2023-12-29T06:56:51;4.50;;;2.20;;
56343;SDS011;42245;42.058;24.700;2023-12-29T06:59:17;4.40;;;2.30;;
56343;SDS011;42245;42.058;24.700;2023-12-29T07:01:43;12.40;;;4.70;;
56343;SDS011;42245;42.058;24.700;2023-12-29T07:04:09;39.13;;;12.77;;
56343;SDS011;42245;42.058;24.700;2023-12-29T07:06:38;44.77;;;16.40;;
56343;SDS011;42245;42.058;24.700;2023-12-29T07:09:04;27.20;;;10.77;;
56343;SDS011;42245;42.058;24.700;2023-12-29T07:11:30;20.90;;;8.13;;
56343;SDS011;42245;42.058;24.700;2023-12-29T07:13:55;19.87;;;8.53;;
56343;SDS011;42245;42.058;24.700;2023-12-29T07:16:21;66.73;;;25.47;;
56343;SDS011;42245;42.058;24.700;2023-12-29T07:18:46;70.33;;;26.40;;
56343;SDS011;42245;42.058;24.700;2023-12-29T07:21:12;20.23;;;11.27;;
56343;SDS011;42245;42.058;24.700;2023-12-29T07:23:39;7.83;;;4.10;;
56343;SDS011;42245;42.058;24.700;2023-12-29T07:26:04;11.57;;;3.77;;
56343;SDS011;42245;42.058;24.700;2023-12-29T07:28:31;15.40;;;8.87;;
56343;SDS011;42245;42.058;24.700;2023-12-29T07:30:57;13.80;;;7.60;;
56343;SDS011;42245;42.058;24.700;2023-12-29T07:33:22;25.77;;;12.17;;
56343;SDS011;42245;42.058;24.700;2023-12-29T07:35:49;23.37;;;9.50;;
56343;SDS011;42245;42.058;24.700;2023-12-29T07:38:15;9.10;;;4.03;;
56343;SDS011;42245;42.058;24.700;2023-12-29T07:40:40;11.20;;;4.40;;
56343;SDS011;42245;42.058;24.700;2023-12-29T07:43:06;9.80;;;4.53;;
56343;SDS011;42245;42.058;24.700;2023-12-29T07:45:31;67.40;;;25.13;;
56343;SDS011;42245;42.058;24.700;2023-12-29T07:47:57;31.77;;;15.10;;
56343;SDS011;42245;42.058;24.700;2023-12-29T07:50:22;19.30;;;10.30;;
56343;SDS011;42245;42.058;24.700;2023-12-29T07:52:48;15.57;;;7.43;;
56343;SDS011;42245;42.058;24.700;2023-12-29T07:55:13;8.50;;;4.23;;
56343;SDS011;42245;42.058;24.700;2023-12-29T07:57:41;5.70;;;4.10;;
56343;SDS011;42245;42.058;24.700;2023-12-29T08:00:08;27.13;;;14.43;;
56343;SDS011;42245;42.058;24.700;2023-12-29T08:02:34;18.57;;;10.83;;
56343;SDS011;42245;42.058;24.700;2023-12-29T08:05:00;24.27;;;13.67;;
56343;SDS011;42245;42.058;24.700;2023-12-29T08:07:26;22.57;;;12.47;;
56343;SDS011;42245;42.058;24.700;2023-12-29T08:09:51;29.10;;;15.03;;
56343;SDS011;42245;42.058;24.700;2023-12-29T08:12:16;21.90;;;12.30;;
56343;SDS011;42245;42.058;24.700;2023-12-29T08:14:42;30.40;;;13.97;;
56343;SDS011;42245;42.058;24.700;2023-12-29T08:17:07;23.02;;;12.60;;
56343;SDS011;42245;42.058;24.700;2023-12-29T08:19:34;26.85;;;13.88;;
56343;SDS011;42245;42.058;24.700;2023-12-29T08:21:59;27.42;;;13.90;;
56343;SDS011;42245;42.058;24.700;2023-12-29T08:24:25;31.58;;;14.32;;
56343;SDS011;42245;42.058;24.700;2023-12-29T08:26:50;26.33;;;16.40;;
56343;SDS011;42245;42.058;24.700;2023-12-29T08:29:15;35.72;;;21.33;;
56343;SDS011;42245;42.058;24.700;2023-12-29T08:31:41;37.78;;;20.45;;
56343;SDS011;42245;42.058;24.700;2023-12-29T08:34:08;27.85;;;17.10;;
56343;SDS011;42245;42.058;24.700;2023-12-29T08:36:34;38.35;;;19.02;;
56343;SDS011;42245;42.058;24.700;2023-12-29T08:38:59;30.13;;;17.13;;
56343;SDS011;42245;42.058;24.700;2023-12-29T08:41:25;34.65;;;16.33;;
56343;SDS011;42245;42.058;24.700;2023-12-29T08:43:50;31.70;;;16.67;;
56343;SDS011;42245;42.058;24.700;2023-12-29T08:46:16;35.80;;;19.33;;
56343;SDS011;42245;42.058;24.700;2023-12-29T08:48:41;35.38;;;22.10;;
56343;SDS011;42245;42.058;24.700;2023-12-29T08:51:06;36.88;;;21.83;;
56343;SDS011;42245;42.058;24.700;2023-12-29T08:53:32;45.30;;;23.48;;
56343;SDS011;42245;42.058;24.700;2023-12-29T08:56:01;38.50;;;21.50;;
56343;SDS011;42245;42.058;24.700;2023-12-29T08:58:26;48.17;;;21.83;;
56343;SDS011;42245;42.058;24.700;2023-12-29T09:00:52;30.75;;;18.42;;
56343;SDS011;42245;42.058;24.700;2023-12-29T09:03:17;29.42;;;17.00;;
56343;SDS011;42245;42.058;24.700;2023-12-29T09:05:43;34.97;;;17.70;;
56343;SDS011;42245;42.058;24.700;2023-12-29T09:08:08;32.47;;;17.70;;
56343;SDS011;42245;42.058;24.700;2023-12-29T09:10:34;29.17;;;17.23;;
56343;SDS011;42245;42.058;24.700;2023-12-29T09:12:59;32.30;;;18.45;;
56343;SDS011;42245;42.058;24.700;2023-12-29T09:15:25;40.38;;;18.35;;
56343;SDS011;42245;42.058;24.700;2023-12-29T09:17:50;26.92;;;17.23;;
56343;SDS011;42245;42.058;24.700;2023-12-29T09:20:16;30.38;;;16.67;;
56343;SDS011;42245;42.058;24.700;2023-12-29T09:22:42;36.15;;;17.20;;
56343;SDS011;42245;42.058;24.700;2023-12-29T09:25:07;27.35;;;18.58;;
56343;SDS011;42245;42.058;24.700;2023-12-29T09:27:33;26.80;;;16.92;;
56343;SDS011;42245;42.058;24.700;2023-12-29T09:29:58;27.30;;;18.20;;
56343;SDS011;42245;42.058;24.700;2023-12-29T09:32:24;28.95;;;16.65;;
56343;SDS011;42245;42.058;24.700;2023-12-29T09:34:49;33.22;;;17.50;;
56343;SDS011;42245;42.058;24.700;2023-12-29T09:37:15;30.75;;;18.02;;
56343;SDS011;42245;42.058;24.700;2023-12-29T09:39:40;30.30;;;16.85;;
56343;SDS011;42245;42.058;24.700;2023-12-29T09:42:06;26.63;;;16.08;;
56343;SDS011;42245;42.058;24.700;2023-12-29T09:44:32;31.65;;;16.10;;
56343;SDS011;42245;42.058;24.700;2023-12-29T09:47:01;24.45;;;15.75;;
56343;SDS011;42245;42.058;24.700;2023-12-29T09:49:38;26.60;;;15.38;;
56343;SDS011;42245;42.058;24.700;2023-12-29T09:52:05;25.60;;;14.98;;
56343;SDS011;42245;42.058;24.700;2023-12-29T09:54:32;31.33;;;15.15;;
56343;SDS011;42245;42.058;24.700;2023-12-29T09:56:58;25.15;;;15.52;;
56343;SDS011;42245;42.058;24.700;2023-12-29T09:59:24;21.85;;;14.45;;
56343;SDS011;42245;42.058;24.700;2023-12-29T10:01:50;27.48;;;15.55;;
56343;SDS011;42245;42.058;24.700;2023-12-29T10:04:16;31.35;;;15.75;;
56343;SDS011;42245;42.058;24.700;2023-12-29T10:06:43;23.73;;;14.85;;
56343;SDS011;42245;42.058;24.700;2023-12-29T10:09:12;29.65;;;14.52;;
56343;SDS011;42245;42.058;24.700;2023-12-29T10:11:39;25.75;;;14.98;;
56343;SDS011;42245;42.058;24.700;2023-12-29T10:14:22;31.30;;;17.83;;
56343;SDS011;42245;42.058;24.700;2023-12-29T10:16:53;34.70;;;17.90;;
56343;SDS011;42245;42.058;24.700;2023-12-29T10:19:37;33.58;;;18.13;;
56343;SDS011;42245;42.058;24.700;2023-12-29T10:22:11;32.45;;;16.08;;
56343;SDS011;42245;42.058;24.700;2023-12-29T10:24:43;28.65;;;17.00;;
56343;SDS011;42245;42.058;24.700;2023-12-29T10:27:12;32.42;;;16.83;;
56343;SDS011;42245;42.058;24.700;2023-12-29T10:29:38;34.65;;;16.20;;
56343;SDS011;42245;42.058;24.700;2023-12-29T10:32:03;25.80;;;15.60;;
56343;SDS011;42245;42.058;24.700;2023-12-29T10:34:29;23.88;;;14.65;;
56343;SDS011;42245;42.058;24.700;2023-12-29T10:36:58;26.73;;;15.32;;
56343;SDS011;42245;42.058;24.700;2023-12-29T10:39:24;21.60;;;14.23;;
56343;SDS011;42245;42.058;24.700;2023-12-29T10:41:50;21.35;;;13.88;;
56343;SDS011;42245;42.058;24.700;2023-12-29T10:44:29;33.05;;;16.95;;
56343;SDS011;42245;42.058;24.700;2023-12-29T10:46:54;22.08;;;13.05;;
56343;SDS011;42245;42.058;24.700;2023-12-29T10:49:20;21.08;;;12.57;;
56343;SDS011;42245;42.058;24.700;2023-12-29T10:51:45;24.63;;;12.50;;
56343;SDS011;42245;42.058;24.700;2023-12-29T10:54:18;19.27;;;11.93;;
56343;SDS011;42245;42.058;24.700;2023-12-29T10:56:47;16.83;;;11.23;;
56343;SDS011;42245;42.058;24.700;2023-12-29T10:59:26;22.83;;;11.90;;
56343;SDS011;42245;42.058;24.700;2023-12-29T11:01:51;21.20;;;11.60;;
56343;SDS011;42245;42.058;24.700;2023-12-29T11:04:21;18.60;;;12.15;;
56343;SDS011;42245;42.058;24.700;2023-12-29T11:06:47;21.83;;;11.82;;
56343;SDS011;42245;42.058;24.700;2023-12-29T11:09:13;20.98;;;12.07;;
56343;SDS011;42245;42.058;24.700;2023-12-29T11:11:39;20.25;;;12.40;;
56343;SDS011;42245;42.058;24.700;2023-12-29T11:14:05;20.75;;;12.20;;
56343;SDS011;42245;42.058;24.700;2023-12-29T11:16:31;23.27;;;13.75;;
56343;SDS011;42245;42.058;24.700;2023-12-29T11:18:59;25.70;;;13.20;;
56343;SDS011;42245;42.058;24.700;2023-12-29T11:21:26;19.85;;;12.82;;
56343;SDS011;42245;42.058;24.700;2023-12-29T11:23:52;25.77;;;12.68;;
56343;SDS011;42245;42.058;24.700;2023-12-29T11:26:18;21.85;;;13.25;;
56343;SDS011;42245;42.058;24.700;2023-12-29T11:28:46;24.30;;;12.60;;
56343;SDS011;42245;42.058;24.700;2023-12-29T11:31:12;21.70;;;12.50;;
56343;SDS011;42245;42.058;24.700;2023-12-29T11:33:38;20.08;;;12.73;;
56343;SDS011;42245;42.058;24.700;2023-12-29T11:36:13;23.08;;;13.38;;
56343;SDS011;42245;42.058;24.700;2023-12-29T11:38:45;28.05;;;13.32;;
56343;SDS011;42245;42.058;24.700;2023-12-29T11:41:31;25.85;;;12.98;;
56343;SDS011;42245;42.058;24.700;2023-12-29T11:44:05;21.65;;;11.80;;
56343;SDS011;42245;42.058;24.700;2023-12-29T11:46:34;22.02;;;12.68;;
56343;SDS011;42245;42.058;24.700;2023-12-29T11:49:04;19.92;;;11.07;;
56343;SDS011;42245;42.058;24.700;2023-12-29T11:51:31;19.15;;;11.50;;
56343;SDS011;42245;42.058;24.700;2023-12-29T11:53:56;25.05;;;11.32;;
56343;SDS011;42245;42.058;24.700;2023-12-29T11:56:22;24.35;;;11.52;;
56343;SDS011;42245;42.058;24.700;2023-12-29T11:58:48;24.90;;;11.88;;
56343;SDS011;42245;42.058;24.700;2023-12-29T12:01:13;23.23;;;11.20;;
56343;SDS011;42245;42.058;24.700;2023-12-29T12:03:39;19.15;;;11.02;;
56343;SDS011;42245;42.058;24.700;2023-12-29T12:06:04;23.15;;;11.55;;
56343;SDS011;42245;42.058;24.700;2023-12-29T12:10:56;27.00;;;11.65;;
56343;SDS011;42245;42.058;24.700;2023-12-29T12:16:07;18.77;;;10.50;;
56343;SDS011;42245;42.058;24.700;2023-12-29T12:18:33;21.73;;;10.32;;
56343;SDS011;42245;42.058;24.700;2023-12-29T12:20:58;17.27;;;10.13;;
56343;SDS011;42245;42.058;24.700;2023-12-29T12:23:25;19.83;;;9.48;;
56343;SDS011;42245;42.058;24.700;2023-12-29T12:25:51;17.48;;;9.23;;
56343;SDS011;42245;42.058;24.700;2023-12-29T12:28:23;14.75;;;8.48;;
56343;SDS011;42245;42.058;24.700;2023-12-29T12:30:48;16.33;;;9.40;;
56343;SDS011;42245;42.058;24.700;2023-12-29T12:33:14;15.70;;;9.13;;
56343;SDS011;42245;42.058;24.700;2023-12-29T12:35:39;22.13;;;10.90;;
56343;SDS011;42245;42.058;24.700;2023-12-29T12:40:36;19.48;;;10.75;;
56343;SDS011;42245;42.058;24.700;2023-12-29T12:43:03;19.77;;;10.30;;
56343;SDS011;42245;42.058;24.700;2023-12-29T12:45:29;22.77;;;9.90;;
56343;SDS011;42245;42.058;24.700;2023-12-29T12:48:02;19.45;;;9.70;;
56343;SDS011;42245;42.058;24.700;2023-12-29T12:50:29;21.80;;;11.27;;
56343;SDS011;42245;42.058;24.700;2023-12-29T12:52:55;18.63;;;9.80;;
56343;SDS011;42245;42.058;24.700;2023-12-29T12:55:23;19.58;;;10.07;;
56343;SDS011;42245;42.058;24.700;2023-12-29T12:57:48;19.35;;;9.50;;
56343;SDS011;42245;42.058;24.700;2023-12-29T13:00:14;19.65;;;10.40;;
56343;SDS011;42245;42.058;24.700;2023-12-29T13:02:40;20.52;;;9.93;;
56343;SDS011;42245;42.058;24.700;2023-12-29T13:05:09;23.92;;;9.82;;
56343;SDS011;42245;42.058;24.700;2023-12-29T13:07:36;18.35;;;9.75;;
56343;SDS011;42245;42.058;24.700;2023-12-29T13:10:01;29.23;;;11.98;;
56343;SDS011;42245;42.058;24.700;2023-12-29T13:12:28;24.65;;;11.32;;
56343;SDS011;42245;42.058;24.700;2023-12-29T13:15:04;18.48;;;10.27;;
56343;SDS011;42245;42.058;24.700;2023-12-29T13:17:30;21.23;;;10.32;;
56343;SDS011;42245;42.058;24.700;2023-12-29T13:19:55;21.85;;;9.82;;
56343;SDS011;42245;42.058;24.700;2023-12-29T13:22:22;20.73;;;10.60;;
56343;SDS011;42245;42.058;24.700;2023-12-29T13:24:48;22.63;;;11.68;;
56343;SDS011;42245;42.058;24.700;2023-12-29T13:27:14;22.17;;;12.18;;
56343;SDS011;42245;42.058;24.700;2023-12-29T13:29:40;26.63;;;12.32;;
56343;SDS011;42245;42.058;24.700;2023-12-29T13:37:33;21.33;;;11.52;;
56343;SDS011;42245;42.058;24.700;2023-12-29T13:40:16;24.83;;;11.95;;
56343;SDS011;42245;42.058;24.700;2023-12-29T13:42:47;26.08;;;11.35;;
56343;SDS011;42245;42.058;24.700;2023-12-29T13:45:13;23.50;;;11.43;;
56343;SDS011;42245;42.058;24.700;2023-12-29T13:47:41;24.27;;;10.85;;
56343;SDS011;42245;42.058;24.700;2023-12-29T13:50:08;24.58;;;11.40;;
56343;SDS011;42245;42.058;24.700;2023-12-29T13:52:35;21.20;;;11.10;;
56343;SDS011;42245;42.058;24.700;2023-12-29T13:55:01;23.77;;;11.35;;
56343;SDS011;42245;42.058;24.700;2023-12-29T13:57:30;23.33;;;11.40;;
56343;SDS011;42245;42.058;24.700;2023-12-29T13:59:57;27.60;;;10.93;;
56343;SDS011;42245;42.058;24.700;2023-12-29T14:02:23;21.88;;;10.95;;
56343;SDS011;42245;42.058;24.700;2023-12-29T14:07:44;32.83;;;11.98;;
56343;SDS011;42245;42.058;24.700;2023-12-29T14:10:18;23.00;;;12.25;;
56343;SDS011;42245;42.058;24.700;2023-12-29T14:12:43;28.52;;;10.80;;
56343;SDS011;42245;42.058;24.700;2023-12-29T14:15:09;21.48;;;9.18;;
56343;SDS011;42245;42.058;24.700;2023-12-29T14:17:35;23.30;;;8.85;;
56343;SDS011;42245;42.058;24.700;2023-12-29T14:20:03;22.90;;;9.85;;
56343;SDS011;42245;42.058;24.700;2023-12-29T14:22:31;21.65;;;10.70;;
56343;SDS011;42245;42.058;24.700;2023-12-29T14:25:00;25.45;;;11.00;;
56343;SDS011;42245;42.058;24.700;2023-12-29T14:27:28;25.42;;;10.73;;
56343;SDS011;42245;42.058;24.700;2023-12-29T14:29:53;30.92;;;10.23;;
56343;SDS011;42245;42.058;24.700;2023-12-29T14:32:19;19.92;;;8.75;;
56343;SDS011;42245;42.058;24.700;2023-12-29T14:34:47;18.30;;;8.00;;
56343;SDS011;42245;42.058;24.700;2023-12-29T14:37:18;20.10;;;9.05;;